King Salmon, AK

6:43 AM AKDT en Abril 24, 2018 (GMT -0800)
King Salmon | | Change Station

Alt 56 ft 58.68 °N, 156.65 °W | Updated 49 minutes ago

Nublado
Nublado
42 ° F
Sensación térmica 32 ° F
N
24
Viento Variable Viento desde SE
Gusts 38 mph

Hoy
Alta -- | Baja -- ° F
--% Posibilidad de precipitaciones
Ayer
Alta -- | Baja -- ° F
Precip. -- pul
Presión 29.10 pul
Visibilidad 10.0 Millas
Nubes Baja 3000 ft
Muy nublado 4300 ft
Nublado 7500 ft
Vientos helados 32 ° F
Punto de rocío 34 ° F
Humedad 73%
Precipitaciones 0.02 pul
Espesor de la nieve No disponible.
6:48 AM 10:02 PM
Gibosa creciente, 69% visible
METAR PAKN 241354Z AUTO 13021G33KT 10SM FEW030 BKN043 OVC075 06/01 A2909 RMK AO2 PK WND 16039/1325 PRESFR SLP852 T00560011 TSNO
Presión 29.10 pul
Visibilidad 10.0 Millas
Nubes Baja 3000 ft
Muy nublado 4300 ft
Nublado 7500 ft
Vientos helados 32 ° F
Punto de rocío 34 ° F
Humedad 73%
Precipitaciones 0.02 pul
Espesor de la nieve No disponible.
6:48 AM 10:02 PM
Gibosa creciente, 69% visible
METAR PAKN 241354Z AUTO 13021G33KT 10SM FEW030 BKN043 OVC075 06/01 A2909 RMK AO2 PK WND 16039/1325 PRESFR SLP852 T00560011 TSNO

Get Severe Weather Alerts

Thanks for signing up!

Be on the lookout for a verification email in your inbox.

You'll start receiving the daily forecast at 6 AM.

×

10-Day Weather Forecast

Almanac

Astronomía

Apr. 24, 2018 Salida Puesta
Hora real
Crepúsculo civil
Crepúsculo náutico
Crepúsculo astronómico
Luna
Horas de luz
Horas de luz
Tomorrow will be .
, % of the Moon is Illuminated

Extremos de hoy

Máximos del estado Bajos del estado

Community

WunderPhotos

Category 6

Welcome to Category 6. This is the collective home for Weather Underground's featured writeups by Dr. Jeff Masters (right), Bob Henson (left), Chris Burt, and other regular contributors.

Nearby

Calidad del aire

  Calidad del aire Índice AQ Contaminante
Not available.

Grosos de nieve

Estación Profundido Altura

Actividad de terremotos

Ciudad Distance Mag. Tiempo y dato
Magnitud mínima muestra es 2,5.

Temperaturas de aguas costeras

Lugar Temperatura

Stations

Estaciones meteorológicas cercanas

Ubicación de la estación Temp. Vientos helados Punto de rocío Humedad Viento Precip. Alt Actualizado Tipo
                   

Watches & Warnings

There are currently no watches in effect.